createdAt,value
2023-02-02T00:01:55.621Z,97884.27
2023-02-02T00:04:46.144Z,97879.36
2023-02-02T00:07:38.314Z,97868.48
2023-02-02T00:10:30.580Z,97870.52
2023-02-02T00:13:22.857Z,97872.84
2023-02-02T00:16:41.818Z,97881.90
2023-02-02T00:19:34.491Z,97887.60
2023-02-02T00:22:26.636Z,97894.42
2023-02-02T00:25:19.225Z,97894.14
2023-02-02T00:28:11.406Z,97898.33
2023-02-02T00:31:03.662Z,97899.69
2023-02-02T00:33:55.955Z,97905.34
2023-02-02T00:36:48.582Z,97905.48
2023-02-02T00:39:40.895Z,97903.41
2023-02-02T00:42:33.027Z,97903.21
2023-02-02T00:45:26.096Z,97905.34
2023-02-02T00:48:18.593Z,97905.38
2023-02-02T00:51:10.809Z,97906.56
2023-02-02T00:54:03.296Z,97909.73
2023-02-02T00:56:55.748Z,97911.92
2023-02-02T00:59:48.175Z,97912.59
2023-02-02T01:02:40.370Z,97907.60
2023-02-02T01:05:32.620Z,97910.81
2023-02-02T01:08:24.876Z,97907.33
2023-02-02T01:11:16.962Z,97910.54
2023-02-02T01:14:09.241Z,97911.61
2023-02-02T01:17:01.564Z,97913.61
2023-02-02T01:19:54.651Z,97915.45
2023-02-02T01:22:47.319Z,97917.55
2023-02-02T01:25:39.556Z,97919.61
2023-02-02T01:28:32.247Z,97916.52
2023-02-02T01:31:24.765Z,97918.65
2023-02-02T01:34:16.912Z,97916.85
2023-02-02T01:37:04.919Z,97920.18
2023-02-02T01:39:57.202Z,97915.99
2023-02-02T01:42:49.471Z,97918.40
2023-02-02T01:45:41.728Z,97917.84
2023-02-02T01:48:36.843Z,97919.00
2023-02-02T01:51:34.133Z,97920.81
2023-02-02T01:54:31.625Z,97924.48
2023-02-02T01:57:29.696Z,97925.52
2023-02-02T02:00:25.517Z,97929.10
2023-02-02T02:03:20.106Z,97929.73
2023-02-02T02:06:15.057Z,97927.68
2023-02-02T02:09:09.184Z,97933.44
2023-02-02T02:12:01.527Z,97936.44
2023-02-02T02:15:11.933Z,97940.35
2023-02-02T02:18:13.855Z,97946.84
2023-02-02T02:21:43.883Z,97951.95
2023-02-02T02:25:31.959Z,97958.05
2023-02-02T02:28:49.951Z,97962.34
2023-02-02T02:32:03.626Z,97963.35
2023-02-02T02:35:03.549Z,97967.48
2023-02-02T02:38:00.498Z,97966.48
2023-02-02T02:40:56.241Z,97968.22
2023-02-02T02:43:52.642Z,97973.96
2023-02-02T02:46:45.874Z,97980.08
2023-02-02T02:49:44.879Z,97979.83
2023-02-02T02:52:38.233Z,97975.17
2023-02-02T02:55:40.633Z,97976.45
2023-02-02T02:58:44.627Z,97972.14
2023-02-02T03:01:50.071Z,97973.35
2023-02-02T03:04:47.622Z,97972.64
2023-02-02T03:07:43.791Z,97980.02
2023-02-02T03:10:39.480Z,97982.26
2023-02-02T03:13:32.680Z,97986.88
2023-02-02T03:16:24.836Z,97984.90
2023-02-02T03:19:16.937Z,97983.32
2023-02-02T03:22:08.111Z,97985.54
2023-02-02T03:25:00.182Z,97986.25
2023-02-02T03:27:52.940Z,97982.04
2023-02-02T03:30:47.084Z,97982.81
2023-02-02T03:33:38.323Z,97979.60
2023-02-02T03:36:30.571Z,97985.00
2023-02-02T03:39:22.793Z,97984.27
2023-02-02T03:42:15.058Z,97983.64
2023-02-02T03:45:08.158Z,97987.95
2023-02-02T03:48:00.337Z,97985.39
2023-02-02T03:50:52.372Z,97985.55
2023-02-02T03:53:47.389Z,97985.03
2023-02-02T03:56:39.553Z,97986.58
2023-02-02T03:59:31.690Z,97980.92
2023-02-02T04:02:23.801Z,97977.16
2023-02-02T04:05:15.999Z,97978.02
2023-02-02T04:08:08.198Z,97978.05
2023-02-02T04:11:00.667Z,97976.88
2023-02-02T04:13:52.781Z,97974.77
2023-02-02T04:16:45.059Z,97973.75
2023-02-02T04:19:37.169Z,97969.23
2023-02-02T04:22:29.737Z,97974.60
2023-02-02T04:25:22.014Z,97972.30
2023-02-02T04:28:14.273Z,97970.29
2023-02-02T04:31:06.668Z,97967.97
2023-02-02T04:33:59.576Z,97967.09
2023-02-02T04:36:51.689Z,97964.48
2023-02-02T04:39:43.839Z,97966.96
2023-02-02T04:42:35.987Z,97957.20
2023-02-02T04:45:28.342Z,97959.73
2023-02-02T04:48:20.668Z,97960.73
2023-02-02T04:51:15.158Z,97969.67
2023-02-02T04:54:08.242Z,97967.86
2023-02-02T04:57:02.815Z,97965.73
2023-02-02T04:59:54.910Z,97966.95
2023-02-02T05:02:47.131Z,97962.58
2023-02-02T05:05:39.233Z,97960.62
2023-02-02T05:08:31.635Z,97966.67
2023-02-02T05:11:24.949Z,97968.73
2023-02-02T05:14:18.494Z,97963.44
2023-02-02T05:17:10.713Z,97964.48
2023-02-02T05:20:02.898Z,97966.66
2023-02-02T05:22:54.975Z,97966.63
2023-02-02T05:25:52.363Z,97965.79
2023-02-02T05:28:44.514Z,97961.21
2023-02-02T05:31:22.188Z,97960.14
2023-02-02T05:34:14.415Z,97964.31
2023-02-02T05:37:06.632Z,97958.66
2023-02-02T05:39:58.782Z,97963.17
2023-02-02T05:42:51.654Z,97965.85
2023-02-02T05:45:44.014Z,97965.53
2023-02-02T05:48:36.362Z,97963.16
2023-02-02T05:51:32.941Z,97958.96
2023-02-02T05:54:25.236Z,97963.98
2023-02-02T05:57:08.155Z,97959.27
2023-02-02T06:00:00.367Z,97956.95
2023-02-02T06:02:52.644Z,97954.94
2023-02-02T06:05:44.863Z,97950.13
2023-02-02T06:08:37.516Z,97949.39
2023-02-02T06:11:29.613Z,97950.51
2023-02-02T06:14:21.707Z,97947.23
2023-02-02T06:17:13.809Z,97945.92
2023-02-02T06:20:06.906Z,97950.02
2023-02-02T06:22:59.175Z,97946.13
2023-02-02T06:25:51.260Z,97948.42
2023-02-02T06:28:43.836Z,97953.73
2023-02-02T06:31:36.139Z,97952.47
2023-02-02T06:34:28.388Z,97951.52
2023-02-02T06:37:20.539Z,97953.27
2023-02-02T06:40:14.392Z,97958.49
2023-02-02T06:43:06.728Z,97964.14
2023-02-02T06:45:40.272Z,97964.90
2023-02-02T06:48:32.442Z,97968.41
2023-02-02T06:51:25.223Z,97971.08
2023-02-02T06:54:17.397Z,97968.30
2023-02-02T06:57:10.358Z,97964.44
2023-02-02T07:00:02.590Z,97966.06
2023-02-02T07:02:54.827Z,97965.48
2023-02-02T07:05:47.244Z,97961.60
2023-02-02T07:08:39.375Z,97957.58
2023-02-02T07:11:32.983Z,97960.65
2023-02-02T07:14:27.017Z,97964.70
2023-02-02T07:17:19.906Z,97960.31
2023-02-02T07:20:13.474Z,97959.55
2023-02-02T07:23:06.301Z,97959.64
2023-02-02T07:26:06.541Z,97954.57
2023-02-02T07:28:58.713Z,97960.49
2023-02-02T07:31:51.105Z,97959.90
2023-02-02T07:34:44.184Z,97956.60
2023-02-02T07:37:19.039Z,97959.17
2023-02-02T07:40:13.388Z,97959.67
2023-02-02T07:43:05.707Z,97951.58
2023-02-02T07:46:02.111Z,97955.36
2023-02-02T07:48:56.393Z,97955.36
2023-02-02T07:51:49.140Z,97954.02
2023-02-02T07:54:33.241Z,97951.86
2023-02-02T07:57:25.429Z,97950.92
2023-02-02T08:00:18.979Z,97949.75
2023-02-02T08:03:13.638Z,97950.70
2023-02-02T08:06:12.898Z,97953.46
2023-02-02T08:09:09.699Z,97951.88
2023-02-02T08:12:02.390Z,97953.58
2023-02-02T08:14:54.653Z,97954.58
2023-02-02T08:17:50.022Z,97956.66
2023-02-02T08:20:42.187Z,97958.77
2023-02-02T08:23:34.407Z,97960.67
2023-02-02T08:26:28.513Z,97967.04
2023-02-02T08:29:19.162Z,97972.67
2023-02-02T08:32:11.359Z,97967.91
2023-02-02T08:35:03.501Z,97973.23
2023-02-02T08:37:55.578Z,97976.20
2023-02-02T08:40:47.996Z,97978.46
2023-02-02T08:43:40.496Z,97978.97
2023-02-02T08:46:33.015Z,97978.76
2023-02-02T08:49:25.912Z,97981.27
2023-02-02T08:52:18.019Z,97977.81
2023-02-02T08:55:10.803Z,97982.11
2023-02-02T08:58:03.203Z,97981.56
2023-02-02T09:00:55.471Z,97979.95
2023-02-02T09:03:47.933Z,97978.91
2023-02-02T09:06:41.935Z,97980.52
2023-02-02T09:09:34.111Z,97984.24
2023-02-02T09:12:26.276Z,97988.71
2023-02-02T09:15:18.546Z,97992.31
2023-02-02T09:18:10.619Z,97999.38
2023-02-02T09:21:04.932Z,97997.45
2023-02-02T09:23:57.199Z,98007.41
2023-02-02T09:26:49.473Z,98006.79
2023-02-02T09:29:41.631Z,98011.05
2023-02-02T09:32:34.093Z,98017.94
2023-02-02T09:35:26.664Z,98018.58
2023-02-02T09:38:19.008Z,98031.77
2023-02-02T09:41:41.788Z,98032.48
2023-02-02T09:44:49.976Z,98029.48
2023-02-02T09:47:58.524Z,98034.23
2023-02-02T09:50:54.523Z,98040.26
2023-02-02T09:53:55.750Z,98042.35
2023-02-02T09:56:54.615Z,98043.16
2023-02-02T09:59:49.703Z,98048.58
2023-02-02T10:02:46.175Z,98049.21
2023-02-02T10:05:50.250Z,98046.61
2023-02-02T10:08:49.771Z,98050.09
2023-02-02T10:11:50.121Z,98055.45
2023-02-02T10:14:48.421Z,98058.08
2023-02-02T10:17:46.647Z,98058.91
2023-02-02T10:20:45.508Z,98063.86
2023-02-02T10:23:40.256Z,98062.16
2023-02-02T10:26:39.945Z,98073.34
2023-02-02T10:29:48.459Z,98074.64
2023-02-02T10:32:27.124Z,98079.26
2023-02-02T10:35:37.089Z,98080.38
2023-02-02T10:38:39.874Z,98091.29
2023-02-02T10:41:42.541Z,98094.39
2023-02-02T10:44:44.506Z,98094.48
2023-02-02T10:47:38.678Z,98103.27
2023-02-02T10:50:29.614Z,98091.21
2023-02-02T10:53:25.895Z,98097.27
2023-02-02T10:56:22.205Z,98097.92
2023-02-02T10:59:20.533Z,98106.05
2023-02-02T11:01:52.608Z,98101.51
2023-02-02T11:04:52.441Z,98107.35
2023-02-02T11:07:44.716Z,98109.95
2023-02-02T11:10:36.829Z,98114.94
2023-02-02T11:13:32.513Z,98113.38
2023-02-02T11:16:38.720Z,98115.82
2023-02-02T11:19:36.483Z,98119.81
2023-02-02T11:22:35.400Z,98117.13
2023-02-02T11:25:32.256Z,98118.80
2023-02-02T11:28:30.285Z,98118.38
2023-02-02T11:31:39.751Z,98125.71
2023-02-02T11:34:32.150Z,98130.94
2023-02-02T11:37:16.933Z,98135.73
2023-02-02T11:40:28.590Z,98137.88
2023-02-02T11:43:29.203Z,98146.08
2023-02-02T11:46:24.719Z,98152.33
2023-02-02T11:49:19.980Z,98149.45
2023-02-02T11:52:21.879Z,98155.25
2023-02-02T11:55:23.302Z,98156.08
2023-02-02T11:58:28.384Z,98162.16
2023-02-02T12:01:28.653Z,98159.80
2023-02-02T12:04:27.756Z,98164.32
2023-02-02T12:07:24.934Z,98160.49
2023-02-02T12:10:27.573Z,98160.66
2023-02-02T12:13:30.659Z,98168.95
2023-02-02T12:16:42.818Z,98176.64
2023-02-02T12:20:05.901Z,98182.20
2023-02-02T12:23:01.189Z,98190.87
2023-02-02T12:26:06.504Z,98196.04
2023-02-02T12:28:49.990Z,98196.85
2023-02-02T12:32:06.038Z,98203.55
2023-02-02T12:35:21.602Z,98204.66
2023-02-02T12:38:23.095Z,98202.12
2023-02-02T12:41:31.611Z,98209.25
2023-02-02T12:44:15.245Z,98218.77
2023-02-02T12:47:19.594Z,98217.46
2023-02-02T12:50:31.219Z,98222.10
2023-02-02T12:53:25.370Z,98222.98
2023-02-02T12:56:28.278Z,98223.00
2023-02-02T12:59:48.437Z,98228.34
2023-02-02T13:02:48.902Z,98231.19
2023-02-02T13:05:56.890Z,98241.14
2023-02-02T13:08:54.014Z,98239.23
2023-02-02T13:11:42.756Z,98242.17
2023-02-02T13:14:41.752Z,98246.67
2023-02-02T13:17:40.176Z,98242.80
2023-02-02T13:20:41.391Z,98253.93
2023-02-02T13:23:38.104Z,98248.70
2023-02-02T13:26:35.311Z,98245.75
2023-02-02T13:29:34.408Z,98251.13
2023-02-02T13:32:42.780Z,98255.44
2023-02-02T13:35:45.299Z,98258.32
2023-02-02T13:38:42.072Z,98262.79
2023-02-02T13:41:34.600Z,98272.95
2023-02-02T13:44:33.243Z,98278.26
2023-02-02T13:47:33.363Z,98284.01
2023-02-02T13:50:12.454Z,98290.72
2023-02-02T13:53:27.229Z,98292.98
2023-02-02T13:56:29.420Z,98301.70
2023-02-02T13:59:36.027Z,98305.31
2023-02-02T14:02:34.494Z,98315.71
2023-02-02T14:05:29.385Z,98322.89
2023-02-02T14:08:23.085Z,98327.50
2023-02-02T14:11:22.683Z,98329.53
2023-02-02T14:14:35.735Z,98336.55
2023-02-02T14:17:53.579Z,98340.40
2023-02-02T14:20:50.323Z,98350.02
2023-02-02T14:23:56.412Z,98351.79
2023-02-02T14:26:50.426Z,98358.04
2023-02-02T14:30:01.335Z,98360.20
2023-02-02T14:32:53.461Z,98373.20
2023-02-02T14:36:04.215Z,98381.48
2023-02-02T14:39:19.862Z,98387.84
2023-02-02T14:42:36.395Z,98396.46
2023-02-02T14:45:33.396Z,98397.28
2023-02-02T14:48:26.731Z,98405.39
2023-02-02T14:51:22.277Z,98411.92
2023-02-02T14:54:26.366Z,98409.35
2023-02-02T14:57:28.901Z,98418.99
2023-02-02T15:00:27.159Z,98428.23
2023-02-02T15:03:49.061Z,98435.09
2023-02-02T15:06:43.237Z,98435.52
2023-02-02T15:09:41.337Z,98438.20
2023-02-02T15:12:39.418Z,98446.02
2023-02-02T15:15:37.042Z,98454.46
2023-02-02T15:18:34.306Z,98459.98
2023-02-02T15:21:27.755Z,98464.34
2023-02-02T15:24:25.767Z,98469.05
2023-02-02T15:27:21.939Z,98476.27
2023-02-02T15:30:17.937Z,98481.56
2023-02-02T15:33:28.591Z,98485.98
2023-02-02T15:36:24.671Z,98492.76
2023-02-02T15:39:31.139Z,98497.92
2023-02-02T15:42:49.175Z,98503.33
2023-02-02T15:45:46.069Z,98510.84
2023-02-02T15:48:38.283Z,98520.31
2023-02-02T15:51:31.410Z,98517.56
2023-02-02T15:54:29.096Z,98524.98
2023-02-02T15:57:38.278Z,98532.29
2023-02-02T16:00:33.820Z,98537.94
2023-02-02T16:03:31.800Z,98542.94
2023-02-02T16:06:24.244Z,98553.38
2023-02-02T16:09:25.055Z,98560.64
2023-02-02T16:12:19.859Z,98567.39
2023-02-02T16:15:22.171Z,98578.96
2023-02-02T16:18:16.482Z,98589.54
2023-02-02T16:21:25.877Z,98595.75
2023-02-02T16:24:01.550Z,98599.96
2023-02-02T16:26:55.841Z,98607.74
2023-02-02T16:29:48.231Z,98609.77
2023-02-02T16:32:42.154Z,98612.13
2023-02-02T16:35:36.428Z,98619.06
2023-02-02T16:38:27.935Z,98622.91
2023-02-02T16:41:32.711Z,98631.75
2023-02-02T16:44:40.584Z,98634.13
2023-02-02T16:47:39.083Z,98639.73
2023-02-02T16:50:34.573Z,98650.84
2023-02-02T16:53:29.305Z,98658.77
2023-02-02T16:56:27.970Z,98668.66
2023-02-02T16:59:24.484Z,98678.30
2023-02-02T17:02:25.832Z,98676.63
2023-02-02T17:05:25.704Z,98689.38
2023-02-02T17:08:29.446Z,98693.09
2023-02-02T17:11:26.269Z,98699.48
2023-02-02T17:14:31.866Z,98709.20
2023-02-02T17:17:24.337Z,98720.53
2023-02-02T17:19:59.283Z,98731.17
2023-02-02T17:22:56.213Z,98735.45
2023-02-02T17:25:49.007Z,98735.71
2023-02-02T17:28:42.859Z,98737.09
2023-02-02T17:31:25.489Z,98736.84
2023-02-02T17:34:19.577Z,98740.33
2023-02-02T17:37:13.035Z,98740.41
2023-02-02T17:40:05.882Z,98752.91
2023-02-02T17:42:58.196Z,98757.54
2023-02-02T17:45:50.629Z,98768.73
2023-02-02T17:48:43.341Z,98780.73
2023-02-02T17:51:49.100Z,98793.27
2023-02-02T17:54:41.434Z,98798.91
2023-02-02T17:57:33.602Z,98801.73
2023-02-02T18:00:31.027Z,98805.45
2023-02-02T18:03:25.734Z,98809.80
2023-02-02T18:06:18.049Z,98814.05
2023-02-02T18:09:11.230Z,98816.66
2023-02-02T18:12:03.300Z,98814.98
2023-02-02T18:14:55.418Z,98823.89
2023-02-02T18:17:47.926Z,98827.86
2023-02-02T18:20:41.502Z,98834.21
2023-02-02T18:23:33.875Z,98836.41
2023-02-02T18:26:27.249Z,98841.91
2023-02-02T18:29:19.333Z,98852.54
2023-02-02T18:32:11.469Z,98858.98
2023-02-02T18:35:03.743Z,98862.63
2023-02-02T18:37:55.897Z,98865.80
2023-02-02T18:41:02.213Z,98871.70
2023-02-02T18:43:56.560Z,98876.64
2023-02-02T18:46:49.007Z,98880.50
2023-02-02T18:49:41.489Z,98884.53
2023-02-02T18:52:36.111Z,98888.79
2023-02-02T18:55:29.103Z,98893.29
2023-02-02T18:58:21.303Z,98899.77
2023-02-02T19:01:16.570Z,98902.07
2023-02-02T19:04:08.906Z,98913.70
2023-02-02T19:07:18.742Z,98923.27
2023-02-02T19:10:13.312Z,98931.73
2023-02-02T19:13:15.904Z,98938.95
2023-02-02T19:16:18.523Z,98944.02
2023-02-02T19:19:22.070Z,98952.22
2023-02-02T19:22:11.101Z,98959.17
2023-02-02T19:25:14.552Z,98967.24
2023-02-02T19:28:22.541Z,98972.73
2023-02-02T19:31:16.548Z,98975.29
2023-02-02T19:33:58.975Z,98980.48
2023-02-02T19:36:52.268Z,98982.18
2023-02-02T19:39:47.047Z,98984.95
2023-02-02T19:42:42.251Z,98993.33
2023-02-02T19:45:28.176Z,98999.98
2023-02-02T19:48:23.724Z,99009.92
2023-02-02T19:51:39.130Z,99015.34
2023-02-02T19:54:34.171Z,99020.38
2023-02-02T19:57:34.079Z,99033.16
2023-02-02T20:00:29.427Z,99041.98
2023-02-02T20:03:24.250Z,99050.65
2023-02-02T20:06:23.860Z,99052.05
2023-02-02T20:09:19.203Z,99056.03
2023-02-02T20:12:23.343Z,99061.88
2023-02-02T20:15:29.140Z,99065.77
2023-02-02T20:18:16.804Z,99072.27
2023-02-02T20:21:19.531Z,99074.56
2023-02-02T20:24:18.383Z,99069.95
2023-02-02T20:27:09.257Z,99071.92
2023-02-02T20:30:18.181Z,99076.20
2023-02-02T20:33:22.109Z,99079.92
2023-02-02T20:36:28.648Z,99080.98
2023-02-02T20:39:29.890Z,99095.05
2023-02-02T20:42:22.099Z,99096.20
2023-02-02T20:45:14.423Z,99098.19
2023-02-02T20:48:07.002Z,99105.31
2023-02-02T20:50:59.132Z,99106.66
2023-02-02T20:53:55.622Z,99115.11
2023-02-02T20:56:47.989Z,99123.09
2023-02-02T20:59:40.217Z,99127.64
2023-02-02T21:02:32.578Z,99136.77
2023-02-02T21:05:25.241Z,99142.31
2023-02-02T21:08:17.396Z,99147.07
2023-02-02T21:11:09.823Z,99145.80
2023-02-02T21:14:02.478Z,99155.77
2023-02-02T21:17:08.867Z,99156.73
2023-02-02T21:20:06.530Z,99160.85
2023-02-02T21:22:49.387Z,99164.48
2023-02-02T21:25:41.943Z,99168.77
2023-02-02T21:28:34.181Z,99164.73
2023-02-02T21:31:26.561Z,99159.58
2023-02-02T21:34:20.824Z,99162.19
2023-02-02T21:37:14.776Z,99163.80
2023-02-02T21:40:13.961Z,99159.05
2023-02-02T21:43:16.363Z,99170.86
2023-02-02T21:46:18.890Z,99178.77
2023-02-02T21:49:25.267Z,99182.65
2023-02-02T21:52:19.534Z,99188.48
2023-02-02T21:55:33.424Z,99189.34
2023-02-02T21:58:29.615Z,99198.19
2023-02-02T22:01:27.355Z,99199.72
2023-02-02T22:04:25.124Z,99206.90
2023-02-02T22:07:17.813Z,99205.01
2023-02-02T22:10:26.684Z,99207.91
2023-02-02T22:13:21.430Z,99212.80
2023-02-02T22:16:18.940Z,99216.00
2023-02-02T22:19:25.720Z,99217.41
2023-02-02T22:22:19.906Z,99226.30
2023-02-02T22:25:28.979Z,99233.41
2023-02-02T22:28:23.414Z,99234.96
2023-02-02T22:31:15.667Z,99234.27
2023-02-02T22:34:07.840Z,99233.39
2023-02-02T22:36:59.897Z,99239.17
2023-02-02T22:39:52.096Z,99239.54
2023-02-02T22:42:24.082Z,99240.35
2023-02-02T22:45:16.488Z,99246.70
2023-02-02T22:48:08.941Z,99246.85
2023-02-02T22:51:01.167Z,99253.52
2023-02-02T22:53:53.333Z,99258.89
2023-02-02T22:56:45.530Z,99265.45
2023-02-02T22:59:37.734Z,99265.27
2023-02-02T23:02:29.944Z,99276.38
2023-02-02T23:05:23.590Z,99280.15
2023-02-02T23:08:15.761Z,99280.50
2023-02-02T23:11:07.976Z,99273.42
2023-02-02T23:14:00.070Z,99285.75
2023-02-02T23:16:52.235Z,99288.98
2023-02-02T23:19:24.157Z,99286.39
2023-02-02T23:22:16.382Z,99289.20
2023-02-02T23:25:09.285Z,99293.89
2023-02-02T23:28:01.451Z,99278.13
2023-02-02T23:30:54.630Z,99282.69
2023-02-02T23:33:46.913Z,99287.39
2023-02-02T23:36:39.061Z,99293.14
2023-02-02T23:39:31.184Z,99291.53
2023-02-02T23:42:23.387Z,99293.06
2023-02-02T23:45:16.506Z,99300.08
2023-02-02T23:48:10.021Z,99304.48
2023-02-02T23:51:02.429Z,99310.00
2023-02-02T23:53:55.616Z,99315.23
2023-02-02T23:56:47.816Z,99327.75
2023-02-02T23:59:40.024Z,99332.60
